Time;durP1;ratioP1;P1;durP2;ratioP2;P2;SDS_P1;SDS_P2;PMS_P1;PMS_P2;Temp;Humidity;BMP_temperature;BMP_pressure;BME280_temperature;BME280_humidity;BME280_pressure;Samples;Min_cycle;Max_cycle;Signal;HPM_P1;HPM_P2
2022/10/14 00:01:12;;;;;;;8.83;2.50;;;;;;;2.07;100.00;101079.50;1693458;84;20904;-55
2022/10/14 00:03:40;;;;;;;5.42;1.98;;;;;;;2.00;100.00;101074.42;1692343;84;20906;-55
2022/10/14 00:06:13;;;;;;;6.42;2.60;;;;;;;1.94;100.00;101071.02;1687967;85;21131;-60
2022/10/14 00:08:41;;;;;;;7.58;1.87;;;;;;;1.90;100.00;101070.87;1688255;84;21481;-55
2022/10/14 00:11:17;;;;;;;5.58;2.08;;;;;;;1.86;100.00;101074.59;1687991;84;21461;-55
2022/10/14 00:13:45;;;;;;;5.70;2.00;;;;;;;1.80;100.00;101073.72;1688175;85;21072;-55
2022/10/14 00:16:19;;;;;;;4.00;2.30;;;;;;;1.78;100.00;101067.84;1687643;84;21065;-56
2022/10/14 00:18:48;;;;;;;6.53;2.08;;;;;;;1.76;100.00;101065.86;1688243;84;21013;-58
2022/10/14 00:21:17;;;;;;;6.70;1.90;;;;;;;1.74;100.00;101065.13;1687997;85;21088;-55
2022/10/14 00:23:45;;;;;;;7.55;2.30;;;;;;;1.71;100.00;101064.90;1688323;85;20985;-56
2022/10/14 00:26:25;;;;;;;10.48;2.37;;;;;;;1.65;100.00;101063.55;1687779;85;20993;-56
2022/10/14 00:28:52;;;;;;;3.60;2.00;;;;;;;1.61;100.00;101066.45;1688178;85;21574;-55
2022/10/14 00:31:19;;;;;;;4.30;1.95;;;;;;;1.59;100.00;101057.57;1688014;84;21289;-55
2022/10/14 00:33:47;;;;;;;4.75;1.60;;;;;;;1.58;100.00;101060.23;1688006;84;21016;-66
2022/10/14 00:36:18;;;;;;;4.53;2.25;;;;;;;1.55;100.00;101054.83;1688015;85;21246;-55
2022/10/14 00:38:45;;;;;;;3.85;1.75;;;;;;;1.54;100.00;101054.48;1688067;85;20997;-55
2022/10/14 00:41:17;;;;;;;4.80;1.50;;;;;;;1.53;100.00;101050.27;1688444;84;21033;-56
2022/10/14 00:44:09;;;;;;;4.37;1.80;;;;;;;1.56;100.00;101060.34;1687679;84;21240;-59
2022/10/14 00:46:39;;;;;;;5.20;2.05;;;;;;;1.55;100.00;101056.58;1687522;84;21073;-56
2022/10/14 00:49:14;;;;;;;6.62;2.42;;;;;;;1.53;100.00;101058.45;1688711;84;21053;-55
2022/10/14 00:51:47;;;;;;;5.85;2.02;;;;;;;1.54;100.00;101062.66;1688223;85;21036;-56
2022/10/14 00:54:15;;;;;;;3.72;1.70;;;;;;;1.54;100.00;101057.52;1688198;84;21476;-56
2022/10/14 00:56:43;;;;;;;4.70;1.92;;;;;;;1.53;100.00;101061.83;1688365;84;21189;-56
2022/10/14 00:59:12;;;;;;;4.90;2.22;;;;;;;1.54;100.00;101055.76;1688020;84;20941;-55
2022/10/14 01:01:39;;;;;;;5.15;1.70;;;;;;;1.52;100.00;101064.05;1668053;85;21498;-56
2022/10/14 01:04:08;;;;;;;5.08;1.60;;;;;;;1.54;100.00;101060.90;1688059;84;21566;-55
2022/10/14 01:07:12;;;;;;;5.87;1.67;;;;;;;1.54;100.00;101063.47;1688329;84;21005;-55
2022/10/14 01:10:09;;;;;;;15.45;2.42;;;;;;;1.51;100.00;101063.67;1609659;89;21415;-55
2022/10/14 01:13:11;;;;;;;4.37;1.80;;;;;;;1.49;100.00;101059.58;1737065;82;21533;-57
2022/10/14 01:16:05;;;;;;;6.97;2.25;;;;;;;1.46;100.00;101063.17;1703449;84;20921;-56
2022/10/14 01:18:44;;;;;;;4.20;1.70;;;;;;;1.45;100.00;101066.67;1703018;83;21043;-56
2022/10/14 01:21:38;;;;;;;4.65;2.00;;;;;;;1.39;100.00;101065.33;1703467;84;20934;-55
2022/10/14 01:24:27;;;;;;;4.65;1.50;;;;;;;1.34;100.00;101060.16;1696878;83;21167;-55
2022/10/14 01:27:18;;;;;;;3.37;1.55;;;;;;;1.32;100.00;101063.28;1702266;83;20928;-56
2022/10/14 01:30:12;;;;;;;4.90;1.90;;;;;;;1.29;100.00;101064.33;1703316;84;20987;-56
2022/10/14 01:32:56;;;;;;;5.03;2.08;;;;;;;1.31;100.00;101070.17;1702219;84;20936;-55
2022/10/14 01:35:33;;;;;;;6.70;2.00;;;;;;;1.38;100.00;101070.58;1675894;85;21006;-55
2022/10/14 01:38:14;;;;;;;4.37;1.75;;;;;;;1.42;100.00;101070.73;1675315;85;21244;-66
2022/10/14 01:41:05;;;;;;;3.17;1.65;;;;;;;1.44;100.00;101071.00;1635957;85;20981;-55
2022/10/14 01:43:33;;;;;;;8.13;2.15;;;;;;;1.45;100.00;101073.10;1741084;82;21019;-58
2022/10/14 01:46:02;;;;;;;4.70;1.90;;;;;;;1.50;100.00;101076.17;1703758;84;21071;-55
2022/10/14 01:48:32;;;;;;;5.53;2.20;;;;;;;1.55;100.00;101075.38;1703477;84;20920;-55
2022/10/14 01:51:01;;;;;;;5.15;2.05;;;;;;;1.55;100.00;101076.66;1703603;84;21237;-55
2022/10/14 01:53:33;;;;;;;7.70;2.47;;;;;;;1.55;100.00;101074.09;1703077;84;21458;-57
2022/10/14 01:56:02;;;;;;;4.20;2.05;;;;;;;1.54;100.00;101071.64;1703513;84;21073;-55
2022/10/14 01:58:30;;;;;;;4.67;2.25;;;;;;;1.56;100.00;101078.80;1703400;84;21430;-56
2022/10/14 02:00:57;;;;;;;5.47;2.15;;;;;;;1.52;100.00;101066.63;1703429;84;20976;-55
2022/10/14 02:03:24;;;;;;;7.00;2.45;;;;;;;1.51;100.00;101064.14;1702929;84;21161;-56
2022/10/14 02:06:00;;;;;;;5.25;2.60;;;;;;;1.52;100.00;101069.19;1705634;83;21051;-55
2022/10/14 02:08:45;;;;;;;6.17;2.65;;;;;;;1.50;100.00;101065.89;1744320;82;20994;-55
2022/10/14 02:11:15;;;;;;;6.17;2.87;;;;;;;1.47;100.00;101062.24;1743487;81;21014;-55
2022/10/14 02:14:11;;;;;;;6.75;3.27;;;;;;;1.47;100.00;101068.66;1744359;82;21078;-56
2022/10/14 02:16:45;;;;;;;8.13;3.45;;;;;;;1.43;100.00;101065.95;1734710;82;21181;-57
2022/10/14 02:19:27;;;;;;;8.55;3.15;;;;;;;1.44;100.00;101070.18;1703955;84;20978;-55
2022/10/14 02:22:04;;;;;;;7.00;3.55;;;;;;;1.44;100.00;101071.47;1744495;82;21537;-56
2022/10/14 02:24:35;;;;;;;7.50;3.17;;;;;;;1.43;100.00;101068.52;1744216;82;21094;-55
2022/10/14 02:27:10;;;;;;;6.03;3.02;;;;;;;1.39;100.00;101065.80;1744631;82;20955;-55
2022/10/14 02:29:37;;;;;;;6.80;3.40;;;;;;;1.39;100.00;101072.22;1717410;82;21210;-56
2022/10/14 02:32:05;;;;;;;6.15;2.92;;;;;;;1.44;100.00;101075.32;1743547;82;20995;-57
2022/10/14 02:34:32;;;;;;;7.95;2.98;;;;;;;1.49;100.00;101067.30;1744305;82;21506;-55
2022/10/14 02:37:00;;;;;;;9.98;3.90;;;;;;;1.54;100.00;101078.06;1744028;82;21027;-55
2022/10/14 02:39:31;;;;;;;6.00;3.00;;;;;;;1.58;100.00;101076.47;1743918;82;21047;-55
2022/10/14 02:42:00;;;;;;;7.37;2.83;;;;;;;1.64;100.00;101074.77;1743936;82;21293;-57
2022/10/14 02:44:27;;;;;;;6.85;3.22;;;;;;;1.73;100.00;101075.06;1710080;82;20983;-56
2022/10/14 02:46:55;;;;;;;6.00;3.15;;;;;;;1.80;100.00;101077.56;1744299;82;20936;-57
2022/10/14 02:49:22;;;;;;;8.98;3.27;;;;;;;1.86;100.00;101079.26;1744234;82;20953;-57
2022/10/14 02:51:49;;;;;;;6.05;3.15;;;;;;;1.95;100.00;101077.31;1743831;82;20975;-57
2022/10/14 02:54:18;;;;;;;9.70;3.60;;;;;;;2.05;100.00;101070.27;1744045;82;21422;-56
2022/10/14 02:56:45;;;;;;;6.08;2.72;;;;;;;2.11;100.00;101077.53;1744050;82;20881;-55
2022/10/14 02:59:12;;;;;;;5.87;3.02;;;;;;;2.23;100.00;101068.13;1744213;82;20984;-55
2022/10/14 03:01:40;;;;;;;8.18;3.10;;;;;;;2.28;100.00;101065.59;1744283;82;21470;-56
2022/10/14 03:04:08;;;;;;;7.12;3.25;;;;;;;2.34;100.00;101072.03;1743523;82;21429;-65
2022/10/14 03:06:37;;;;;;;7.72;2.35;;;;;;;2.42;100.00;101069.30;1708277;84;21235;-55
2022/10/14 03:09:05;;;;;;;4.80;2.83;;;;;;;2.50;100.00;101065.31;1738259;82;20971;-56
2022/10/14 03:11:33;;;;;;;7.60;3.25;;;;;;;2.55;100.00;101065.36;1719456;82;21058;-55
2022/10/14 03:14:02;;;;;;;7.62;2.45;;;;;;;2.66;100.00;101055.10;1746197;82;21462;-66
2022/10/14 03:16:30;;;;;;;6.97;3.12;;;;;;;2.80;100.00;101053.25;1708294;84;21381;-57
2022/10/14 03:18:58;;;;;;;5.65;2.90;;;;;;;2.99;100.00;101055.28;1746988;82;21111;-56
2022/10/14 03:21:27;;;;;;;8.13;3.45;;;;;;;3.05;100.00;101065.14;1744362;82;20892;-56
2022/10/14 03:23:55;;;;;;;8.33;3.75;;;;;;;3.15;100.00;101056.63;1708233;84;20995;-57
2022/10/14 03:26:25;;;;;;;7.78;2.67;;;;;;;3.24;100.00;101049.12;1746457;82;21482;-56
2022/10/14 03:28:53;;;;;;;5.28;2.83;;;;;;;3.28;100.00;101048.77;1708478;84;21414;-56
2022/10/14 03:31:21;;;;;;;7.42;2.98;;;;;;;3.36;100.00;101059.78;1746639;82;21113;-56
2022/10/14 03:33:57;;;;;;;5.97;2.67;;;;;;;3.47;100.00;101048.67;1744844;82;20939;-61
2022/10/14 03:36:25;;;;;;;4.75;2.80;;;;;;;3.58;100.00;101052.06;1719598;82;21444;-57
2022/10/14 03:38:53;;;;;;;7.08;3.65;;;;;;;3.65;100.00;101045.97;1708494;84;20982;-55
2022/10/14 03:41:38;;;;;;;6.67;3.50;;;;;;;3.70;100.00;101057.20;1744923;82;20903;-58
2022/10/14 03:44:06;;;;;;;8.73;3.65;;;;;;;3.71;100.00;101050.63;1708354;84;21844;-55
2022/10/14 03:46:35;;;;;;;5.28;3.30;;;;;;;3.69;100.00;101057.68;1746721;82;20971;-56
2022/10/14 03:49:03;;;;;;;6.30;3.12;;;;;;;3.72;100.00;101063.08;1708024;84;21061;-55
2022/10/14 03:51:32;;;;;;;5.37;2.60;;;;;;;3.71;100.00;101062.70;1746701;82;21529;-59
2022/10/14 03:54:01;;;;;;;6.92;3.45;;;;;;;3.74;100.00;101062.47;1745046;82;20936;-56
2022/10/14 03:56:28;;;;;;;8.70;3.52;;;;;;;3.75;100.00;101067.53;1708059;84;21291;-60
2022/10/14 03:58:56;;;;;;;8.85;3.60;;;;;;;3.77;100.00;101068.22;1746969;81;21502;-56
2022/10/14 04:01:24;;;;;;;6.40;3.98;;;;;;;3.78;100.00;101060.82;1708213;84;21032;-55
2022/10/14 04:03:55;;;;;;;8.13;3.87;;;;;;;3.80;100.00;101077.01;1739320;82;21047;-56
2022/10/14 04:06:24;;;;;;;9.40;3.55;;;;;;;3.83;100.00;101072.09;1704110;83;21033;-55
2022/10/14 04:08:53;;;;;;;5.62;3.00;;;;;;;3.82;100.00;101071.25;1703168;84;21107;-55
2022/10/14 04:11:22;;;;;;;8.85;3.42;;;;;;;3.89;100.00;101066.44;1702465;83;20904;-56
2022/10/14 04:13:50;;;;;;;6.62;3.45;;;;;;;3.98;100.00;101056.71;1702606;84;21509;-60
2022/10/14 04:16:19;;;;;;;7.90;3.50;;;;;;;4.03;100.00;101067.47;1703469;84;20960;-56
2022/10/14 04:18:50;;;;;;;9.88;4.05;;;;;;;4.07;100.00;101068.88;1702297;83;21546;-55
2022/10/14 04:21:19;;;;;;;6.50;3.50;;;;;;;4.12;100.00;101056.41;1703354;84;21359;-56
2022/10/14 04:23:47;;;;;;;7.58;3.70;;;;;;;4.18;100.00;101062.05;1702570;84;21506;-58
2022/10/14 04:26:15;;;;;;;6.83;3.60;;;;;;;4.27;100.00;101056.14;1703331;84;21043;-59
2022/10/14 04:28:44;;;;;;;6.40;3.70;;;;;;;4.35;100.00;101063.61;1703247;84;21064;-55
2022/10/14 04:31:13;;;;;;;6.62;4.20;;;;;;;4.33;100.00;101065.99;1702813;83;21011;-56
2022/10/14 04:33:45;;;;;;;6.95;3.85;;;;;;;4.36;100.00;101070.92;1701757;83;21262;-66
2022/10/14 04:36:14;;;;;;;7.92;3.85;;;;;;;4.42;100.00;101066.53;1702167;83;21539;-56
2022/10/14 04:38:42;;;;;;;7.60;4.20;;;;;;;4.56;100.00;101071.89;1703312;84;21071;-56
2022/10/14 04:41:09;;;;;;;6.72;4.72;;;;;;;4.62;100.00;101061.05;1703093;84;20992;-56
2022/10/14 04:43:38;;;;;;;9.70;4.35;;;;;;;4.69;100.00;101072.52;1703073;84;21471;-56
2022/10/14 04:46:08;;;;;;;8.08;4.60;;;;;;;4.75;100.00;101070.73;1701178;83;21170;-65
2022/10/14 04:48:35;;;;;;;7.78;4.30;;;;;;;4.83;100.00;101060.59;1703013;84;21372;-56
2022/10/14 04:51:03;;;;;;;9.28;6.05;;;;;;;4.93;100.00;101070.19;1703165;84;20960;-57
2022/10/14 04:53:35;;;;;;;8.93;5.22;;;;;;;5.02;100.00;101072.00;1700211;83;21012;-56
2022/10/14 04:56:05;;;;;;;13.25;5.10;;;;;;;5.09;100.00;101072.66;1702766;83;21494;-64
2022/10/14 04:58:34;;;;;;;9.68;5.30;;;;;;;5.23;100.00;101070.70;1702726;84;21762;-55
2022/10/14 05:01:02;;;;;;;9.83;5.08;;;;;;;5.32;100.00;101075.91;1702954;84;21030;-55
2022/10/14 05:03:31;;;;;;;9.75;6.25;;;;;;;5.43;100.00;101070.31;1703163;84;20964;-55
2022/10/14 05:05:59;;;;;;;8.83;5.40;;;;;;;5.54;100.00;101074.11;1705703;84;20948;-56
2022/10/14 05:08:26;;;;;;;8.13;4.40;;;;;;;5.65;100.00;101075.78;1746156;82;20880;-57
2022/10/14 05:10:55;;;;;;;6.20;4.08;;;;;;;5.75;100.00;101077.91;1746752;82;21474;-55
2022/10/14 05:13:34;;;;;;;10.28;4.67;;;;;;;5.83;100.00;101074.19;1745906;82;20951;-56
2022/10/14 05:16:05;;;;;;;8.98;5.10;;;;;;;5.92;100.00;101069.56;1746786;82;21018;-57
2022/10/14 05:18:33;;;;;;;9.55;5.62;;;;;;;6.02;100.00;101076.03;1707918;84;21413;-55
2022/10/14 05:21:05;;;;;;;8.03;4.37;;;;;;;6.13;100.00;101077.22;1746698;82;21061;-56
2022/10/14 05:23:34;;;;;;;10.20;5.05;;;;;;;6.28;100.00;101082.83;1744182;82;21159;-57
2022/10/14 05:26:02;;;;;;;9.33;5.20;;;;;;;6.38;100.00;101077.67;1708467;84;21390;-57
2022/10/14 05:28:30;;;;;;;10.88;4.90;;;;;;;6.47;100.00;101078.95;1746592;81;20912;-59
2022/10/14 05:30:57;;;;;;;10.50;5.92;;;;;;;6.60;100.00;101081.77;1708607;84;22254;-55
2022/10/14 05:33:26;;;;;;;10.13;5.15;;;;;;;6.68;100.00;101080.60;1747070;82;21453;-55
2022/10/14 05:35:53;;;;;;;8.50;5.15;;;;;;;6.77;100.00;101086.23;1708616;84;21316;-58
2022/10/14 05:38:20;;;;;;;10.93;5.55;;;;;;;6.93;100.00;101084.37;1746884;82;21407;-62
2022/10/14 05:40:54;;;;;;;9.45;5.08;;;;;;;7.11;100.00;101082.70;1708255;84;20888;-55
2022/10/14 05:43:21;;;;;;;9.70;5.53;;;;;;;7.19;100.00;101081.52;1746840;82;21447;-55
2022/10/14 05:45:49;;;;;;;11.20;5.28;;;;;;;7.34;100.00;101086.27;1708908;84;21006;-55
2022/10/14 05:48:17;;;;;;;9.35;5.12;;;;;;;7.44;100.00;101083.17;1746583;82;21256;-64
2022/10/14 05:50:45;;;;;;;12.47;7.22;;;;;;;7.63;100.00;101079.68;1708496;84;21045;-55
2022/10/14 05:53:14;;;;;;;12.43;7.22;;;;;;;7.77;100.00;101088.30;1746858;81;21541;-55
2022/10/14 05:55:43;;;;;;;12.83;6.77;;;;;;;7.94;100.00;101088.80;1746800;82;20920;-55
2022/10/14 05:58:11;;;;;;;10.03;6.57;;;;;;;8.01;100.00;101100.24;1708161;84;21158;-64
2022/10/14 06:00:41;;;;;;;12.30;7.03;;;;;;;8.10;100.00;101100.33;1747194;82;22252;-56
2022/10/14 06:03:11;;;;;;;13.20;6.77;;;;;;;8.20;100.00;101094.60;1747036;82;20885;-55
2022/10/14 06:05:40;;;;;;;10.63;6.37;;;;;;;8.34;100.00;101100.59;1707725;83;21659;-55
2022/10/14 06:08:08;;;;;;;13.20;7.07;;;;;;;8.45;100.00;101097.81;1744064;82;21868;-57
2022/10/14 06:10:37;;;;;;;12.03;6.07;;;;;;;8.57;100.00;101102.78;1744279;82;21553;-55
2022/10/14 06:13:05;;;;;;;11.87;6.23;;;;;;;8.66;100.00;101097.98;1744263;82;21206;-55
2022/10/14 06:15:35;;;;;;;12.33;6.67;;;;;;;8.69;100.00;101096.39;1744198;82;21202;-55
2022/10/14 06:18:02;;;;;;;11.30;6.13;;;;;;;8.73;100.00;101098.53;1744214;82;21252;-55
2022/10/14 06:20:30;;;;;;;9.27;5.60;;;;;;;8.90;100.00;101096.05;1743623;82;21194;-56
2022/10/14 06:22:59;;;;;;;11.63;6.20;;;;;;;9.01;100.00;101101.81;1744431;82;21430;-58
2022/10/14 06:25:26;;;;;;;11.67;6.40;;;;;;;9.12;100.00;101098.64;1743884;82;21173;-55
2022/10/14 06:27:55;;;;;;;14.00;6.83;;;;;;;9.25;100.00;101097.77;1744138;82;21083;-55
2022/10/14 06:30:22;;;;;;;13.17;8.03;;;;;;;9.34;100.00;101099.43;1743832;82;21212;-55
2022/10/14 06:32:52;;;;;;;12.80;8.80;;;;;;;9.47;100.00;101097.24;1744643;82;21791;-55
2022/10/14 06:35:20;;;;;;;13.17;8.47;;;;;;;9.64;100.00;101096.82;1744475;82;21236;-55
2022/10/14 06:37:47;;;;;;;14.43;8.97;;;;;;;9.84;100.00;101103.08;1744294;82;21173;-55
2022/10/14 06:40:15;;;;;;;18.77;11.93;;;;;;;10.01;100.00;101099.56;1743885;82;21251;-58
2022/10/14 06:42:44;;;;;;;16.73;11.33;;;;;;;10.18;100.00;101101.72;1744264;82;21303;-55
2022/10/14 06:45:11;;;;;;;18.57;11.20;;;;;;;10.31;100.00;101102.11;1744202;81;21249;-55
2022/10/14 06:47:39;;;;;;;19.87;10.63;;;;;;;10.48;100.00;101106.84;1744335;82;21663;-55
2022/10/14 06:50:07;;;;;;;23.70;12.57;;;;;;;10.66;100.00;101098.88;1744608;82;21390;-55
2022/10/14 06:52:35;;;;;;;17.10;10.57;;;;;;;11.00;100.00;101101.80;1743560;82;21123;-55
2022/10/14 06:55:04;;;;;;;19.57;10.87;;;;;;;11.12;100.00;101095.26;1744158;82;21951;-55
2022/10/14 06:57:31;;;;;;;22.73;13.23;;;;;;;11.12;100.00;101095.26;1744394;82;21309;-55
2022/10/14 07:00:00;;;;;;;19.90;12.10;;;;;;;11.29;100.00;101097.33;1744281;82;21700;-55
2022/10/14 07:02:27;;;;;;;18.90;11.07;;;;;;;11.37;100.00;101095.53;1744031;82;22216;-61
2022/10/14 07:04:55;;;;;;;23.77;14.30;;;;;;;11.35;100.00;101094.06;1744050;82;21628;-55
2022/10/14 07:07:23;;;;;;;22.90;14.37;;;;;;;11.37;100.00;101098.14;1746282;82;21949;-55
2022/10/14 07:09:51;;;;;;;22.33;13.67;;;;;;;11.34;100.00;101102.39;1746827;82;22269;-55
2022/10/14 07:12:18;;;;;;;17.57;12.37;;;;;;;11.22;100.00;101106.34;1746988;82;21634;-55
2022/10/14 07:14:45;;;;;;;18.33;11.50;;;;;;;11.12;100.00;101109.11;1746333;82;22202;-62
2022/10/14 07:17:14;;;;;;;16.93;10.33;;;;;;;11.06;100.00;101108.48;1746941;82;22749;-55
2022/10/14 07:19:43;;;;;;;24.17;10.47;;;;;;;11.05;100.00;101103.42;1746966;82;21566;-55
2022/10/14 07:22:10;;;;;;;16.63;11.37;;;;;;;11.06;100.00;101105.88;1746862;82;21570;-55
2022/10/14 07:24:37;;;;;;;14.00;10.10;;;;;;;11.17;100.00;101108.15;1746878;82;21641;-54
2022/10/14 07:27:08;;;;;;;15.17;9.27;;;;;;;11.17;100.00;101108.15;1746429;82;21612;-58
2022/10/14 07:29:36;;;;;;;18.00;10.10;;;;;;;11.21;100.00;101109.91;1708284;84;22193;-55
2022/10/14 07:32:04;;;;;;;15.13;9.83;;;;;;;11.34;100.00;101102.88;1746927;82;21693;-55
2022/10/14 07:34:33;;;;;;;12.70;7.80;;;;;;;11.43;100.00;101106.59;1708514;84;21703;-55
2022/10/14 07:37:00;;;;;;;13.70;8.13;;;;;;;11.60;100.00;101100.03;1747144;82;21568;-63
2022/10/14 07:39:29;;;;;;;15.97;7.40;;;;;;;11.80;100.00;101105.16;1746642;81;21662;-55
2022/10/14 07:41:56;;;;;;;14.63;8.20;;;;;;;11.95;100.00;101099.26;1708311;84;21114;-58
2022/10/14 07:44:23;;;;;;;10.73;7.53;;;;;;;12.09;100.00;101102.45;1746631;82;21047;-55
2022/10/14 07:46:50;;;;;;;12.43;6.83;;;;;;;12.40;100.00;101097.19;1708339;84;21498;-55
2022/10/14 07:49:21;;;;;;;14.60;7.57;;;;;;;12.66;100.00;101100.76;1747018;82;20905;-64
2022/10/14 07:51:48;;;;;;;9.37;7.03;;;;;;;12.94;100.00;101094.95;1708236;84;21260;-57
2022/10/14 07:54:20;;;;;;;17.27;11.73;;;;;;;13.20;100.00;101093.23;1746818;82;20904;-54
2022/10/14 07:56:50;;;;;;;48.40;32.20;;;;;;;13.50;100.00;101096.70;1746856;82;21498;-54
2022/10/14 07:59:19;;;;;;;14.05;9.63;;;;;;;13.81;100.00;101086.81;1746777;82;20892;-56
2022/10/14 08:01:47;;;;;;;15.90;10.33;;;;;;;14.31;100.00;101089.05;1708388;84;21243;-55
2022/10/14 08:04:14;;;;;;;10.90;6.53;;;;;;;14.94;100.00;101085.28;1746897;82;21231;-54
2022/10/14 08:06:43;;;;;;;13.57;8.20;;;;;;;15.47;100.00;101079.54;1746944;82;20963;-55
2022/10/14 08:09:10;;;;;;;15.03;8.23;;;;;;;16.11;100.00;101073.12;1708201;84;21071;-56
2022/10/14 08:11:38;;;;;;;10.40;5.87;;;;;;;16.86;100.00;101073.77;1747117;82;21545;-55
2022/10/14 08:14:06;;;;;;;10.63;5.63;;;;;;;17.52;100.00;101072.31;1708463;84;20972;-57
2022/10/14 08:16:34;;;;;;;10.90;6.13;;;;;;;18.01;100.00;101071.41;1746815;82;22210;-55
2022/10/14 08:19:07;;;;;;;11.03;4.50;;;;;;;18.52;100.00;101070.44;1708448;84;20932;-55
2022/10/14 08:21:36;;;;;;;5.57;3.23;;;;;;;18.84;83.48;101065.94;1746508;82;20975;-55
2022/10/14 08:24:04;;;;;;;4.33;2.60;;;;;;;18.79;78.64;101065.77;1708458;84;21054;-55
2022/10/14 08:26:36;;;;;;;5.03;2.30;;;;;;;18.92;71.88;101060.37;1747142;82;21441;-55
2022/10/14 08:29:06;;;;;;;5.30;2.60;;;;;;;18.86;68.64;101066.51;1707884;84;21825;-58
2022/10/14 08:31:33;;;;;;;6.50;2.50;;;;;;;18.87;66.38;101065.51;1746960;82;21399;-55
2022/10/14 08:34:01;;;;;;;3.73;2.03;;;;;;;18.92;63.67;101064.33;1708349;84;20987;-55
2022/10/14 08:36:28;;;;;;;4.17;1.37;;;;;;;18.96;61.33;101058.91;1746876;82;20975;-55
2022/10/14 08:38:55;;;;;;;4.33;1.70;;;;;;;18.74;55.21;101065.61;1708485;84;20988;-58
2022/10/14 08:42:11;;;;;;;4.50;2.20;;;;;;;18.40;55.34;101065.05;1746369;82;21694;-58
2022/10/14 08:45:00;;;;;;;4.43;2.30;;;;;;;18.09;56.27;101056.12;1707697;84;21082;-66
2022/10/14 08:47:34;;;;;;;4.93;2.20;;;;;;;17.99;59.63;101060.56;1685011;84;21563;-57
2022/10/14 08:50:25;;;;;;;3.70;1.70;;;;;;;17.99;58.91;101067.65;1729796;82;20971;-57
2022/10/14 08:52:56;;;;;;;4.80;2.05;;;;;;;17.82;57.11;101059.95;1708664;84;20885;-57
2022/10/14 08:55:52;;;;;;;4.20;1.95;;;;;;;17.75;59.03;101059.45;1690991;84;25057;-58
2022/10/14 08:58:45;;;;;;;3.33;1.40;;;;;;;18.00;57.48;101060.05;1678442;85;21333;-57
2022/10/14 09:01:33;;;;;;;3.20;1.70;;;;;;;18.40;54.63;101050.53;1708291;84;21059;-63
2022/10/14 09:04:03;;;;;;;2.90;1.50;;;;;;;18.62;52.89;101054.92;1746771;82;21565;-55
2022/10/14 09:06:33;;;;;;;4.58;1.70;;;;;;;18.86;52.43;101054.63;1708613;84;21043;-54
2022/10/14 09:09:23;;;;;;;5.23;2.83;;;;;;;18.76;51.47;101060.42;1746573;82;21066;-61
2022/10/14 09:11:57;;;;;;;7.90;4.47;;;;;;;18.19;52.41;101055.16;1711478;82;20896;-59
2022/10/14 09:14:30;;;;;;;12.90;9.53;;;;;;;17.71;54.13;101052.96;1708623;84;21079;-57
2022/10/14 09:17:03;;;;;;;5.17;2.90;;;;;;;17.57;55.02;101051.91;1746930;82;21482;-55
2022/10/14 09:19:36;;;;;;;4.30;2.07;;;;;;;17.57;54.75;101052.72;1746417;82;21017;-55
2022/10/14 09:22:07;;;;;;;3.40;1.77;;;;;;;17.72;54.60;101053.77;1708586;84;21308;-55
2022/10/14 09:24:34;;;;;;;3.65;1.92;;;;;;;17.98;53.69;101052.33;1697028;82;20975;-55
2022/10/14 09:27:08;;;;;;;4.93;1.53;;;;;;;18.12;54.76;101049.63;1708494;84;21003;-55
2022/10/14 09:29:58;;;;;;;3.97;1.70;;;;;;;18.39;53.29;101048.92;1746640;82;20948;-55
2022/10/14 09:32:43;;;;;;;3.87;1.37;;;;;;;18.56;51.51;101049.17;1708493;84;21837;-55
2022/10/14 09:35:18;;;;;;;3.47;1.53;;;;;;;18.82;50.87;101050.28;1746705;82;21085;-55
2022/10/14 09:37:45;;;;;;;3.27;1.60;;;;;;;18.89;49.18;101044.43;1708108;84;21047;-56
2022/10/14 09:40:34;;;;;;;3.53;1.90;;;;;;;18.73;49.30;101043.69;1746970;82;20943;-55
2022/10/14 09:43:13;;;;;;;2.57;1.47;;;;;;;18.81;51.34;101043.91;1708335;84;20984;-56
2022/10/14 09:46:07;;;;;;;2.83;1.33;;;;;;;19.20;49.89;101044.80;1746477;82;21111;-56
2022/10/14 09:48:39;;;;;;;4.10;1.90;;;;;;;19.49;46.43;101033.19;1708840;84;21870;-57
2022/10/14 09:51:28;;;;;;;3.30;1.43;;;;;;;19.27;45.36;101038.65;1746290;82;21486;-57
2022/10/14 09:53:57;;;;;;;4.60;1.70;;;;;;;19.05;47.46;101040.41;1708352;84;21565;-55
2022/10/14 09:56:41;;;;;;;2.90;1.47;;;;;;;18.86;45.97;101042.73;1746826;82;21012;-58
2022/10/14 09:59:19;;;;;;;3.80;1.80;;;;;;;18.48;45.34;101048.42;1708495;84;20980;-56
2022/10/14 10:02:00;;;;;;;4.97;2.23;;;;;;;18.05;47.23;101050.98;1746847;82;21243;-55
2022/10/14 10:04:46;;;;;;;3.20;1.35;;;;;;;17.67;49.04;101053.59;1708705;84;21022;-56
2022/10/14 10:07:28;;;;;;;2.90;1.40;;;;;;;17.35;49.18;101053.53;1745097;82;21022;-56
2022/10/14 10:09:57;;;;;;;2.60;1.20;;;;;;;16.88;47.72;101050.70;1736642;82;21118;-56
2022/10/14 10:12:32;;;;;;;2.23;0.90;;;;;;;16.44;47.87;101050.78;1703517;83;21040;-56
2022/10/14 10:15:04;;;;;;;3.10;0.90;;;;;;;16.10;47.27;101053.07;1703194;83;21286;-57
2022/10/14 10:17:35;;;;;;;3.47;1.00;;;;;;;15.81;47.73;101057.67;1702954;84;21431;-56
2022/10/14 10:20:33;;;;;;;;;;;;;;;15.58;49.34;101052.70;1661255;85;20977;-56
2022/10/14 10:22:55;;;;;;;4.20;1.37;;;;;;;15.48;51.43;101052.25;1674770;85;20514;-64
2022/10/14 10:25:25;;;;;;;2.27;1.07;;;;;;;15.45;51.50;101055.27;1675769;85;21100;-58
2022/10/14 10:27:53;;;;;;;3.43;1.30;;;;;;;15.42;52.47;101051.70;1676182;85;21243;-56
2022/10/14 10:30:25;;;;;;;2.40;1.00;;;;;;;15.39;52.66;101052.92;1741727;82;21398;-56
2022/10/14 10:33:18;;;;;;;2.80;1.23;;;;;;;15.42;53.45;101047.77;1741393;82;21391;-63
2022/10/14 10:36:18;;;;;;;4.73;1.53;;;;;;;15.44;52.02;101047.89;1741770;82;20932;-55
2022/10/14 10:39:03;;;;;;;3.20;1.27;;;;;;;15.43;52.76;101050.22;1703314;84;20979;-55
2022/10/14 10:42:02;;;;;;;4.93;1.10;;;;;;;15.39;50.44;101048.18;1676111;85;21338;-54
2022/10/14 10:44:54;;;;;;;6.83;1.90;;;;;;;15.39;51.17;101049.49;1675939;85;20961;-55
2022/10/14 10:47:32;;;;;;;4.15;1.17;;;;;;;15.46;51.36;101043.27;1675661;85;21421;-55
2022/10/14 10:50:26;;;;;;;3.90;0.97;;;;;;;15.58;52.20;101037.75;1675963;85;21630;-55
2022/10/14 10:53:12;;;;;;;4.07;1.43;;;;;;;15.96;52.14;101033.84;1675477;85;21413;-56
2022/10/14 10:56:12;;;;;;;3.00;1.10;;;;;;;16.54;50.26;101030.95;1676004;85;21303;-55
2022/10/14 10:58:56;;;;;;;3.17;0.97;;;;;;;16.96;46.57;101022.82;1741541;82;21348;-57
2022/10/14 11:01:35;;;;;;;2.90;0.70;;;;;;;17.07;42.06;101020.87;1741532;82;21454;-55
2022/10/14 11:04:30;;;;;;;2.83;0.90;;;;;;;16.98;41.85;101026.87;1741643;82;20983;-55
2022/10/14 11:13:37;;;;;;;5.33;3.63;;;;;;;15.99;42.53;101034.26;1651103;85;20993;-55
2022/10/14 11:16:27;;;;;;;3.17;1.30;;;;;;;15.71;44.09;101038.82;1673338;85;21159;-55
2022/10/14 11:19:03;;;;;;;3.75;1.50;;;;;;;15.26;47.95;101037.89;1741727;82;20999;-54
2022/10/14 11:21:41;;;;;;;5.00;1.97;;;;;;;14.87;50.75;101041.61;1702925;84;21084;-57
2022/10/14 11:24:45;;;;;;;5.07;3.40;;;;;;;14.60;52.76;101046.67;1676182;85;21142;-54
2022/10/14 11:27:33;;;;;;;4.83;3.30;;;;;;;14.45;55.32;101043.28;1741383;81;21440;-55
2022/10/14 11:30:29;;;;;;;4.43;1.63;;;;;;;14.35;57.35;101046.22;1703192;84;21011;-56
2022/10/14 11:33:24;;;;;;;3.53;1.73;;;;;;;14.25;56.22;101046.55;1676008;85;21013;-55
2022/10/14 11:36:21;;;;;;;5.90;2.07;;;;;;;14.12;56.70;101039.84;1675161;85;21112;-55
2022/10/14 11:39:03;;;;;;;3.93;1.50;;;;;;;13.95;58.18;101045.04;1675595;85;21306;-55
2022/10/14 11:41:54;;;;;;;4.53;1.90;;;;;;;13.81;59.12;101041.45;1703699;84;21026;-55
2022/10/14 11:44:40;;;;;;;4.15;1.92;;;;;;;13.73;59.63;101044.99;1602850;85;21663;-55
2022/10/14 11:47:25;;;;;;;3.63;1.57;;;;;;;13.71;61.67;101039.61;1675005;85;21045;-55
2022/10/14 11:50:12;;;;;;;4.13;1.80;;;;;;;13.78;60.94;101041.31;1674951;85;20863;-55
2022/10/14 11:52:51;;;;;;;3.27;1.40;;;;;;;13.84;61.75;101037.16;1675923;85;21262;-57
2022/10/14 11:55:25;;;;;;;3.57;1.67;;;;;;;13.90;61.00;101039.52;1741507;82;22065;-55
2022/10/14 11:58:05;;;;;;;4.03;1.90;;;;;;;13.79;60.31;101033.78;1703238;84;21482;-55